Aeroporto :
LOGIN :

Iscrizione | Disclaimer

   EN    FR    IT 

 










Sommario :    VFR   VFR Marginale   IFR   IFR Intensivo   IFR Molto Intensivo
Visibilità : 
Base nubi : 
>= 8 km
>= 3000ft
5 / 8 km
1000 / 3000 ft
1500m / 5 km
500 / 1000 ft
800 / 1500m
200 / 500 ft
< 800m
< 200 ft
Simboli :   Temporali  Nebbia  Neve Forte  Precipitazioni Forti  Vento > 20 kt
SIGMETs :   Varie  Temporali  Ghiacco  Turbolenza  Onda orograficha  Ceneri Vulcaniche






- Altitudine del aeroporto : 489 ft
- Codice IATA : GDN


EPGD - Gdansk

ULTIMO METAR :
  • 300730Z 28007KT CAVOK 01/M07 Q1022

METARs OBSOLETI :
  • 300700Z 27008KT CAVOK 01/M07 Q1022
  • 300630Z 27006KT CAVOK M00/M07 Q1022
  • 300600Z 24004KT 210V280 CAVOK M02/M07 Q1022
  • 300530Z 23002KT CAVOK M03/M08 Q1022
  • 300500Z 25004KT CAVOK M04/M08 Q1022

TAF TAF EPGD
Valido dal 30 a 06 ore il 31 a 06 ore UTC


300530Z 3006/3106 29005KT CAVOK
TEMPO 3012/3019 3000 SHSNRA BKN012CB
PROB40
TEMPO 3013/3024 1000 SHSN BKN002 BKN009CB
BECMG 3016/3018 01010KT



MetMap, La meteo Aeronautica in un colpo d'occhio ! - Copyright ORBIFLY Dicembre 2007 - Disclaimer

ORBIFLY MET'MAP TEAM :

Programmazione e sviluppo : Alexandra Zaïnal
Concezione : Baudouin d'Aumeries
Aiuto per la programmazione : Marc-Olivier Méhu
Supporto tecnico e logistico : Manuel Goepfert
Aiuto per la traduzione : Arnaldo La Scala

Contatto : metmap@orbifly.com




FONTI E CREDITI :

   NOAA